sensor_id;sensor_type;location;lat;lon;timestamp;P1;durP1;ratioP1;P2;durP2;ratioP2
20144;SDS011;10233;50.814;6.590;2023-01-08T00:00:39;1.80;;;0.80;;
20144;SDS011;10233;50.814;6.590;2023-01-08T00:01:39;1.50;;;0.88;;
20144;SDS011;10233;50.814;6.590;2023-01-08T00:02:40;3.03;;;0.95;;
20144;SDS011;10233;50.814;6.590;2023-01-08T00:03:40;1.10;;;1.00;;
20144;SDS011;10233;50.814;6.590;2023-01-08T00:04:41;1.10;;;0.82;;
20144;SDS011;10233;50.814;6.590;2023-01-08T00:05:43;1.30;;;0.90;;
20144;SDS011;10233;50.814;6.590;2023-01-08T00:06:43;2.03;;;0.90;;
20144;SDS011;10233;50.814;6.590;2023-01-08T00:07:44;0.90;;;0.80;;
20144;SDS011;10233;50.814;6.590;2023-01-08T00:08:44;1.30;;;0.93;;
20144;SDS011;10233;50.814;6.590;2023-01-08T00:09:45;1.35;;;0.90;;
20144;SDS011;10233;50.814;6.590;2023-01-08T00:10:52;1.40;;;0.85;;
20144;SDS011;10233;50.814;6.590;2023-01-08T00:11:54;2.88;;;0.90;;
20144;SDS011;10233;50.814;6.590;2023-01-08T00:12:54;1.52;;;1.08;;
20144;SDS011;10233;50.814;6.590;2023-01-08T00:13:55;3.15;;;1.00;;
20144;SDS011;10233;50.814;6.590;2023-01-08T00:14:56;4.72;;;1.05;;
20144;SDS011;10233;50.814;6.590;2023-01-08T00:16:01;1.73;;;0.90;;
20144;SDS011;10233;50.814;6.590;2023-01-08T00:17:09;2.87;;;1.30;;
20144;SDS011;10233;50.814;6.590;2023-01-08T00:18:09;3.13;;;1.20;;
20144;SDS011;10233;50.814;6.590;2023-01-08T00:19:10;2.17;;;1.00;;
20144;SDS011;10233;50.814;6.590;2023-01-08T00:20:11;1.42;;;1.00;;
20144;SDS011;10233;50.814;6.590;2023-01-08T00:21:12;1.67;;;1.07;;
20144;SDS011;10233;50.814;6.590;2023-01-08T00:22:13;2.45;;;1.10;;
20144;SDS011;10233;50.814;6.590;2023-01-08T00:23:15;2.43;;;1.10;;
20144;SDS011;10233;50.814;6.590;2023-01-08T00:24:17;2.50;;;1.05;;
20144;SDS011;10233;50.814;6.590;2023-01-08T00:25:18;1.90;;;1.03;;
20144;SDS011;10233;50.814;6.590;2023-01-08T00:26:18;1.20;;;0.90;;
20144;SDS011;10233;50.814;6.590;2023-01-08T00:27:19;1.90;;;1.20;;
20144;SDS011;10233;50.814;6.590;2023-01-08T00:28:20;2.80;;;1.25;;
20144;SDS011;10233;50.814;6.590;2023-01-08T00:29:21;1.98;;;1.10;;
20144;SDS011;10233;50.814;6.590;2023-01-08T00:30:21;1.93;;;1.17;;
20144;SDS011;10233;50.814;6.590;2023-01-08T00:31:21;2.83;;;1.20;;
20144;SDS011;10233;50.814;6.590;2023-01-08T00:32:22;3.63;;;1.20;;
20144;SDS011;10233;50.814;6.590;2023-01-08T00:33:22;2.70;;;1.27;;
20144;SDS011;10233;50.814;6.590;2023-01-08T00:34:23;1.70;;;1.20;;
20144;SDS011;10233;50.814;6.590;2023-01-08T00:35:23;1.90;;;1.37;;
20144;SDS011;10233;50.814;6.590;2023-01-08T00:36:24;2.55;;;1.15;;
20144;SDS011;10233;50.814;6.590;2023-01-08T00:37:24;3.60;;;1.30;;
20144;SDS011;10233;50.814;6.590;2023-01-08T00:38:28;1.97;;;0.90;;
20144;SDS011;10233;50.814;6.590;2023-01-08T00:39:28;1.42;;;1.27;;
20144;SDS011;10233;50.814;6.590;2023-01-08T00:40:29;3.60;;;1.10;;
20144;SDS011;10233;50.814;6.590;2023-01-08T00:41:30;3.37;;;1.40;;
20144;SDS011;10233;50.814;6.590;2023-01-08T00:42:30;2.08;;;1.20;;
20144;SDS011;10233;50.814;6.590;2023-01-08T00:43:30;1.90;;;1.10;;
20144;SDS011;10233;50.814;6.590;2023-01-08T00:44:31;2.28;;;1.55;;
20144;SDS011;10233;50.814;6.590;2023-01-08T00:45:32;2.67;;;1.40;;
20144;SDS011;10233;50.814;6.590;2023-01-08T00:46:32;2.00;;;1.40;;
20144;SDS011;10233;50.814;6.590;2023-01-08T00:47:32;4.33;;;1.40;;
20144;SDS011;10233;50.814;6.590;2023-01-08T00:48:33;2.43;;;1.50;;
20144;SDS011;10233;50.814;6.590;2023-01-08T00:49:37;3.00;;;1.40;;
20144;SDS011;10233;50.814;6.590;2023-01-08T00:50:38;2.50;;;1.40;;
20144;SDS011;10233;50.814;6.590;2023-01-08T00:51:38;2.60;;;1.50;;
20144;SDS011;10233;50.814;6.590;2023-01-08T00:52:39;2.25;;;1.40;;
20144;SDS011;10233;50.814;6.590;2023-01-08T00:53:40;4.73;;;1.80;;
20144;SDS011;10233;50.814;6.590;2023-01-08T00:54:40;3.10;;;1.40;;
20144;SDS011;10233;50.814;6.590;2023-01-08T00:55:40;3.83;;;1.43;;
20144;SDS011;10233;50.814;6.590;2023-01-08T00:56:41;2.33;;;1.40;;
20144;SDS011;10233;50.814;6.590;2023-01-08T00:57:42;3.40;;;1.52;;
20144;SDS011;10233;50.814;6.590;2023-01-08T00:58:42;3.93;;;1.37;;
20144;SDS011;10233;50.814;6.590;2023-01-08T00:59:43;2.70;;;1.50;;
20144;SDS011;10233;50.814;6.590;2023-01-08T01:00:45;3.30;;;1.20;;
20144;SDS011;10233;50.814;6.590;2023-01-08T01:01:45;2.50;;;1.58;;
20144;SDS011;10233;50.814;6.590;2023-01-08T01:02:46;2.25;;;1.30;;
20144;SDS011;10233;50.814;6.590;2023-01-08T01:03:46;3.40;;;1.40;;
20144;SDS011;10233;50.814;6.590;2023-01-08T01:04:47;2.03;;;1.30;;
20144;SDS011;10233;50.814;6.590;2023-01-08T01:05:47;2.43;;;1.40;;
20144;SDS011;10233;50.814;6.590;2023-01-08T01:06:49;3.70;;;1.50;;
20144;SDS011;10233;50.814;6.590;2023-01-08T01:07:49;2.30;;;1.40;;
20144;SDS011;10233;50.814;6.590;2023-01-08T01:08:49;4.70;;;1.50;;
20144;SDS011;10233;50.814;6.590;2023-01-08T01:09:50;2.00;;;1.20;;
20144;SDS011;10233;50.814;6.590;2023-01-08T01:10:51;2.53;;;1.40;;
20144;SDS011;10233;50.814;6.590;2023-01-08T01:11:51;2.45;;;1.40;;
20144;SDS011;10233;50.814;6.590;2023-01-08T01:12:51;3.37;;;1.20;;
20144;SDS011;10233;50.814;6.590;2023-01-08T01:13:53;2.08;;;1.33;;
20144;SDS011;10233;50.814;6.590;2023-01-08T01:14:54;1.65;;;1.20;;
20144;SDS011;10233;50.814;6.590;2023-01-08T01:15:56;2.70;;;1.30;;
20144;SDS011;10233;50.814;6.590;2023-01-08T01:16:59;1.85;;;1.30;;
20144;SDS011;10233;50.814;6.590;2023-01-08T01:18:00;2.20;;;1.17;;
20144;SDS011;10233;50.814;6.590;2023-01-08T01:19:00;1.90;;;1.40;;
20144;SDS011;10233;50.814;6.590;2023-01-08T01:20:01;1.52;;;1.10;;
20144;SDS011;10233;50.814;6.590;2023-01-08T01:21:08;2.30;;;1.43;;
20144;SDS011;10233;50.814;6.590;2023-01-08T01:22:10;2.17;;;1.27;;
20144;SDS011;10233;50.814;6.590;2023-01-08T01:23:11;2.00;;;1.25;;
20144;SDS011;10233;50.814;6.590;2023-01-08T01:24:11;3.38;;;1.40;;
20144;SDS011;10233;50.814;6.590;2023-01-08T01:25:12;2.72;;;1.30;;
20144;SDS011;10233;50.814;6.590;2023-01-08T01:26:14;2.23;;;1.10;;
20144;SDS011;10233;50.814;6.590;2023-01-08T01:27:19;3.55;;;1.25;;
20144;SDS011;10233;50.814;6.590;2023-01-08T01:28:19;2.05;;;1.30;;
20144;SDS011;10233;50.814;6.590;2023-01-08T01:29:20;1.80;;;1.20;;
20144;SDS011;10233;50.814;6.590;2023-01-08T01:30:20;2.70;;;1.13;;
20144;SDS011;10233;50.814;6.590;2023-01-08T01:31:21;3.15;;;1.50;;
20144;SDS011;10233;50.814;6.590;2023-01-08T01:32:23;2.53;;;1.58;;
20144;SDS011;10233;50.814;6.590;2023-01-08T01:33:23;2.47;;;1.40;;
20144;SDS011;10233;50.814;6.590;2023-01-08T01:34:24;1.38;;;1.10;;
20144;SDS011;10233;50.814;6.590;2023-01-08T01:35:24;2.47;;;1.00;;
20144;SDS011;10233;50.814;6.590;2023-01-08T01:36:25;1.80;;;1.37;;
20144;SDS011;10233;50.814;6.590;2023-01-08T01:37:26;3.25;;;1.45;;
20144;SDS011;10233;50.814;6.590;2023-01-08T01:38:27;2.88;;;1.30;;
20144;SDS011;10233;50.814;6.590;2023-01-08T01:39:28;4.93;;;1.60;;
20144;SDS011;10233;50.814;6.590;2023-01-08T01:40:29;2.38;;;1.30;;
20144;SDS011;10233;50.814;6.590;2023-01-08T01:41:36;2.57;;;1.20;;
20144;SDS011;10233;50.814;6.590;2023-01-08T01:42:38;3.22;;;1.55;;
20144;SDS011;10233;50.814;6.590;2023-01-08T01:43:40;3.17;;;1.05;;
20144;SDS011;10233;50.814;6.590;2023-01-08T01:44:43;2.00;;;1.30;;
20144;SDS011;10233;50.814;6.590;2023-01-08T01:45:44;2.75;;;1.48;;
20144;SDS011;10233;50.814;6.590;2023-01-08T01:46:45;1.80;;;1.17;;
20144;SDS011;10233;50.814;6.590;2023-01-08T01:47:57;2.03;;;1.27;;
20144;SDS011;10233;50.814;6.590;2023-01-08T01:49:08;1.33;;;0.90;;
20144;SDS011;10233;50.814;6.590;2023-01-08T01:50:14;2.80;;;1.20;;
20144;SDS011;10233;50.814;6.590;2023-01-08T01:51:18;3.20;;;1.40;;
20144;SDS011;10233;50.814;6.590;2023-01-08T01:52:19;4.63;;;1.23;;
20144;SDS011;10233;50.814;6.590;2023-01-08T01:53:26;2.03;;;1.25;;
20144;SDS011;10233;50.814;6.590;2023-01-08T01:54:30;1.88;;;1.15;;
20144;SDS011;10233;50.814;6.590;2023-01-08T01:55:32;2.13;;;1.15;;
20144;SDS011;10233;50.814;6.590;2023-01-08T01:56:34;2.83;;;1.13;;
20144;SDS011;10233;50.814;6.590;2023-01-08T01:57:35;1.70;;;1.10;;
20144;SDS011;10233;50.814;6.590;2023-01-08T01:58:36;2.67;;;1.10;;
20144;SDS011;10233;50.814;6.590;2023-01-08T01:59:37;1.33;;;0.80;;
20144;SDS011;10233;50.814;6.590;2023-01-08T02:00:38;1.80;;;0.90;;
20144;SDS011;10233;50.814;6.590;2023-01-08T02:01:39;1.45;;;1.00;;
20144;SDS011;10233;50.814;6.590;2023-01-08T02:02:42;1.38;;;0.73;;
20144;SDS011;10233;50.814;6.590;2023-01-08T02:03:43;1.60;;;0.80;;
20144;SDS011;10233;50.814;6.590;2023-01-08T02:04:43;1.42;;;0.90;;
20144;SDS011;10233;50.814;6.590;2023-01-08T02:05:54;2.17;;;0.87;;
20144;SDS011;10233;50.814;6.590;2023-01-08T02:08:10;2.30;;;0.95;;
20144;SDS011;10233;50.814;6.590;2023-01-08T02:09:34;1.38;;;0.82;;
20144;SDS011;10233;50.814;6.590;2023-01-08T02:10:49;0.60;;;0.60;;
20144;SDS011;10233;50.814;6.590;2023-01-08T02:12:04;1.05;;;0.80;;
20144;SDS011;10233;50.814;6.590;2023-01-08T02:13:30;0.83;;;0.77;;
20144;SDS011;10233;50.814;6.590;2023-01-08T02:18:56;1.60;;;0.85;;
20144;SDS011;10233;50.814;6.590;2023-01-08T02:20:10;1.40;;;0.90;;
20144;SDS011;10233;50.814;6.590;2023-01-08T02:21:29;2.55;;;0.80;;
20144;SDS011;10233;50.814;6.590;2023-01-08T02:22:52;1.25;;;0.77;;
20144;SDS011;10233;50.814;6.590;2023-01-08T02:24:02;2.63;;;0.80;;
20144;SDS011;10233;50.814;6.590;2023-01-08T02:25:16;2.20;;;0.70;;
20144;SDS011;10233;50.814;6.590;2023-01-08T02:26:39;1.70;;;0.70;;
20144;SDS011;10233;50.814;6.590;2023-01-08T02:27:44;1.10;;;0.60;;
20144;SDS011;10233;50.814;6.590;2023-01-08T02:28:51;0.77;;;0.55;;
20144;SDS011;10233;50.814;6.590;2023-01-08T02:29:55;0.70;;;0.50;;
20144;SDS011;10233;50.814;6.590;2023-01-08T02:30:57;0.40;;;0.40;;
20144;SDS011;10233;50.814;6.590;2023-01-08T02:31:58;0.82;;;0.52;;
20144;SDS011;10233;50.814;6.590;2023-01-08T02:32:59;1.10;;;0.60;;
20144;SDS011;10233;50.814;6.590;2023-01-08T02:33:59;1.50;;;0.60;;
20144;SDS011;10233;50.814;6.590;2023-01-08T02:35:00;0.50;;;0.50;;
20144;SDS011;10233;50.814;6.590;2023-01-08T02:37:32;0.70;;;0.50;;
20144;SDS011;10233;50.814;6.590;2023-01-08T02:38:34;0.50;;;0.50;;
20144;SDS011;10233;50.814;6.590;2023-01-08T02:40:41;1.50;;;0.55;;
20144;SDS011;10233;50.814;6.590;2023-01-08T02:42:04;0.98;;;0.70;;
20144;SDS011;10233;50.814;6.590;2023-01-08T02:43:17;0.50;;;0.50;;
20144;SDS011;10233;50.814;6.590;2023-01-08T02:44:29;0.70;;;0.50;;
20144;SDS011;10233;50.814;6.590;2023-01-08T02:46:35;0.80;;;0.50;;
20144;SDS011;10233;50.814;6.590;2023-01-08T02:47:46;0.75;;;0.60;;
20144;SDS011;10233;50.814;6.590;2023-01-08T02:48:55;0.90;;;0.57;;
20144;SDS011;10233;50.814;6.590;2023-01-08T02:50:10;1.55;;;0.63;;
20144;SDS011;10233;50.814;6.590;2023-01-08T02:51:13;0.70;;;0.43;;
20144;SDS011;10233;50.814;6.590;2023-01-08T02:52:18;0.63;;;0.40;;
20144;SDS011;10233;50.814;6.590;2023-01-08T02:53:21;0.68;;;0.50;;
20144;SDS011;10233;50.814;6.590;2023-01-08T02:54:25;0.40;;;0.40;;
20144;SDS011;10233;50.814;6.590;2023-01-08T02:55:30;0.60;;;0.40;;
20144;SDS011;10233;50.814;6.590;2023-01-08T02:56:35;1.27;;;0.50;;
20144;SDS011;10233;50.814;6.590;2023-01-08T02:57:40;0.50;;;0.40;;
20144;SDS011;10233;50.814;6.590;2023-01-08T02:58:41;0.68;;;0.50;;
20144;SDS011;10233;50.814;6.590;2023-01-08T02:59:43;0.95;;;0.40;;
20144;SDS011;10233;50.814;6.590;2023-01-08T03:00:49;0.77;;;0.50;;
20144;SDS011;10233;50.814;6.590;2023-01-08T03:01:51;1.23;;;0.50;;
20144;SDS011;10233;50.814;6.590;2023-01-08T03:02:58;1.20;;;0.35;;
20144;SDS011;10233;50.814;6.590;2023-01-08T03:04:22;0.60;;;0.40;;
20144;SDS011;10233;50.814;6.590;2023-01-08T03:05:25;1.20;;;0.40;;
20144;SDS011;10233;50.814;6.590;2023-01-08T03:06:27;2.75;;;0.50;;
20144;SDS011;10233;50.814;6.590;2023-01-08T03:07:28;1.17;;;0.90;;
20144;SDS011;10233;50.814;6.590;2023-01-08T03:08:29;0.90;;;0.50;;
20144;SDS011;10233;50.814;6.590;2023-01-08T03:09:33;0.80;;;0.40;;
20144;SDS011;10233;50.814;6.590;2023-01-08T03:10:34;0.90;;;0.43;;
20144;SDS011;10233;50.814;6.590;2023-01-08T03:11:39;1.20;;;0.38;;
20144;SDS011;10233;50.814;6.590;2023-01-08T03:15:42;0.55;;;0.40;;
20144;SDS011;10233;50.814;6.590;2023-01-08T03:16:57;0.60;;;0.40;;
20144;SDS011;10233;50.814;6.590;2023-01-08T03:18:06;1.00;;;0.50;;
20144;SDS011;10233;50.814;6.590;2023-01-08T03:19:14;0.40;;;0.38;;
20144;SDS011;10233;50.814;6.590;2023-01-08T03:20:22;0.50;;;0.30;;
20144;SDS011;10233;50.814;6.590;2023-01-08T03:21:24;0.55;;;0.40;;
20144;SDS011;10233;50.814;6.590;2023-01-08T03:22:25;1.08;;;0.43;;
20144;SDS011;10233;50.814;6.590;2023-01-08T03:23:27;0.70;;;0.60;;
20144;SDS011;10233;50.814;6.590;2023-01-08T03:24:30;0.65;;;0.40;;
20144;SDS011;10233;50.814;6.590;2023-01-08T03:25:33;0.57;;;0.40;;
20144;SDS011;10233;50.814;6.590;2023-01-08T03:26:38;0.50;;;0.40;;
20144;SDS011;10233;50.814;6.590;2023-01-08T03:27:42;0.40;;;0.40;;
20144;SDS011;10233;50.814;6.590;2023-01-08T03:28:46;0.50;;;0.40;;
20144;SDS011;10233;50.814;6.590;2023-01-08T03:29:51;0.50;;;0.32;;
20144;SDS011;10233;50.814;6.590;2023-01-08T03:30:55;0.30;;;0.30;;
20144;SDS011;10233;50.814;6.590;2023-01-08T03:31:59;1.15;;;0.38;;
20144;SDS011;10233;50.814;6.590;2023-01-08T03:33:02;1.10;;;0.50;;
20144;SDS011;10233;50.814;6.590;2023-01-08T03:34:05;0.57;;;0.40;;
20144;SDS011;10233;50.814;6.590;2023-01-08T03:35:07;0.40;;;0.40;;
20144;SDS011;10233;50.814;6.590;2023-01-08T03:36:15;1.38;;;0.45;;
20144;SDS011;10233;50.814;6.590;2023-01-08T03:37:24;0.40;;;0.38;;
20144;SDS011;10233;50.814;6.590;2023-01-08T03:38:44;0.32;;;0.32;;
20144;SDS011;10233;50.814;6.590;2023-01-08T03:41:12;0.63;;;0.38;;
20144;SDS011;10233;50.814;6.590;2023-01-08T03:42:17;0.90;;;0.47;;
20144;SDS011;10233;50.814;6.590;2023-01-08T03:43:20;0.43;;;0.32;;
20144;SDS011;10233;50.814;6.590;2023-01-08T03:44:20;1.20;;;0.40;;
20144;SDS011;10233;50.814;6.590;2023-01-08T03:45:21;0.57;;;0.30;;
20144;SDS011;10233;50.814;6.590;2023-01-08T03:46:30;0.43;;;0.30;;
20144;SDS011;10233;50.814;6.590;2023-01-08T03:47:33;0.47;;;0.30;;
20144;SDS011;10233;50.814;6.590;2023-01-08T03:48:36;1.20;;;0.40;;
20144;SDS011;10233;50.814;6.590;2023-01-08T03:49:37;0.88;;;0.30;;
20144;SDS011;10233;50.814;6.590;2023-01-08T03:50:40;0.82;;;0.50;;
20144;SDS011;10233;50.814;6.590;2023-01-08T03:51:41;0.55;;;0.30;;
20144;SDS011;10233;50.814;6.590;2023-01-08T03:52:43;0.30;;;0.30;;
20144;SDS011;10233;50.814;6.590;2023-01-08T03:53:44;0.47;;;0.30;;
20144;SDS011;10233;50.814;6.590;2023-01-08T03:54:46;2.30;;;0.40;;
20144;SDS011;10233;50.814;6.590;2023-01-08T03:55:46;1.05;;;0.50;;
20144;SDS011;10233;50.814;6.590;2023-01-08T03:56:47;0.50;;;0.30;;
20144;SDS011;10233;50.814;6.590;2023-01-08T03:57:47;0.60;;;0.30;;
20144;SDS011;10233;50.814;6.590;2023-01-08T03:58:47;0.40;;;0.40;;
20144;SDS011;10233;50.814;6.590;2023-01-08T03:59:48;0.43;;;0.40;;
20144;SDS011;10233;50.814;6.590;2023-01-08T04:00:50;1.30;;;0.45;;
20144;SDS011;10233;50.814;6.590;2023-01-08T04:01:50;1.35;;;0.30;;
20144;SDS011;10233;50.814;6.590;2023-01-08T04:02:51;0.60;;;0.40;;
20144;SDS011;10233;50.814;6.590;2023-01-08T04:03:51;0.73;;;0.40;;
20144;SDS011;10233;50.814;6.590;2023-01-08T04:04:51;0.68;;;0.30;;
20144;SDS011;10233;50.814;6.590;2023-01-08T04:05:52;0.40;;;0.30;;
20144;SDS011;10233;50.814;6.590;2023-01-08T04:06:52;0.68;;;0.30;;
20144;SDS011;10233;50.814;6.590;2023-01-08T04:07:56;0.67;;;0.40;;
20144;SDS011;10233;50.814;6.590;2023-01-08T04:08:56;1.00;;;0.20;;
20144;SDS011;10233;50.814;6.590;2023-01-08T04:09:57;0.30;;;0.20;;
20144;SDS011;10233;50.814;6.590;2023-01-08T04:10:57;0.40;;;0.30;;
20144;SDS011;10233;50.814;6.590;2023-01-08T04:11:58;0.43;;;0.20;;
20144;SDS011;10233;50.814;6.590;2023-01-08T04:12:58;0.27;;;0.27;;
20144;SDS011;10233;50.814;6.590;2023-01-08T04:13:59;0.35;;;0.35;;
20144;SDS011;10233;50.814;6.590;2023-01-08T04:14:59;0.50;;;0.37;;
20144;SDS011;10233;50.814;6.590;2023-01-08T04:16:00;0.37;;;0.37;;
20144;SDS011;10233;50.814;6.590;2023-01-08T04:17:00;1.08;;;0.40;;
20144;SDS011;10233;50.814;6.590;2023-01-08T04:18:01;0.50;;;0.20;;
20144;SDS011;10233;50.814;6.590;2023-01-08T04:19:01;0.50;;;0.35;;
20144;SDS011;10233;50.814;6.590;2023-01-08T04:20:01;0.40;;;0.30;;
20144;SDS011;10233;50.814;6.590;2023-01-08T04:21:02;0.65;;;0.28;;
20144;SDS011;10233;50.814;6.590;2023-01-08T04:22:03;0.70;;;0.27;;
20144;SDS011;10233;50.814;6.590;2023-01-08T04:23:03;0.85;;;0.47;;
20144;SDS011;10233;50.814;6.590;2023-01-08T04:24:03;0.70;;;0.30;;
20144;SDS011;10233;50.814;6.590;2023-01-08T04:25:05;0.47;;;0.30;;
20144;SDS011;10233;50.814;6.590;2023-01-08T04:26:06;0.30;;;0.22;;
20144;SDS011;10233;50.814;6.590;2023-01-08T04:27:07;0.73;;;0.35;;
20144;SDS011;10233;50.814;6.590;2023-01-08T04:28:08;0.87;;;0.30;;
20144;SDS011;10233;50.814;6.590;2023-01-08T04:29:10;0.50;;;0.30;;
20144;SDS011;10233;50.814;6.590;2023-01-08T04:30:11;1.02;;;0.40;;
20144;SDS011;10233;50.814;6.590;2023-01-08T04:31:12;1.50;;;0.60;;
20144;SDS011;10233;50.814;6.590;2023-01-08T04:32:12;1.40;;;0.33;;
20144;SDS011;10233;50.814;6.590;2023-01-08T04:33:13;0.90;;;0.40;;
20144;SDS011;10233;50.814;6.590;2023-01-08T04:34:13;1.10;;;0.30;;
20144;SDS011;10233;50.814;6.590;2023-01-08T04:35:14;1.33;;;0.30;;
20144;SDS011;10233;50.814;6.590;2023-01-08T04:36:14;0.30;;;0.30;;
20144;SDS011;10233;50.814;6.590;2023-01-08T04:37:15;1.02;;;0.30;;
20144;SDS011;10233;50.814;6.590;2023-01-08T04:38:15;0.50;;;0.30;;
20144;SDS011;10233;50.814;6.590;2023-01-08T04:39:19;0.40;;;0.20;;
20144;SDS011;10233;50.814;6.590;2023-01-08T04:40:19;0.50;;;0.30;;
20144;SDS011;10233;50.814;6.590;2023-01-08T04:41:20;0.20;;;0.20;;
20144;SDS011;10233;50.814;6.590;2023-01-08T04:42:20;1.67;;;0.37;;
20144;SDS011;10233;50.814;6.590;2023-01-08T04:43:20;1.47;;;0.37;;
20144;SDS011;10233;50.814;6.590;2023-01-08T04:44:21;0.40;;;0.20;;
20144;SDS011;10233;50.814;6.590;2023-01-08T04:45:21;0.30;;;0.23;;
20144;SDS011;10233;50.814;6.590;2023-01-08T04:46:22;0.30;;;0.30;;
20144;SDS011;10233;50.814;6.590;2023-01-08T04:47:23;0.65;;;0.30;;
20144;SDS011;10233;50.814;6.590;2023-01-08T04:48:23;0.47;;;0.23;;
20144;SDS011;10233;50.814;6.590;2023-01-08T04:49:24;0.73;;;0.30;;
20144;SDS011;10233;50.814;6.590;2023-01-08T04:50:25;1.40;;;0.30;;
20144;SDS011;10233;50.814;6.590;2023-01-08T04:51:26;1.33;;;0.47;;
20144;SDS011;10233;50.814;6.590;2023-01-08T04:52:27;0.60;;;0.33;;
20144;SDS011;10233;50.814;6.590;2023-01-08T04:53:28;1.15;;;0.40;;
20144;SDS011;10233;50.814;6.590;2023-01-08T04:54:32;0.35;;;0.30;;
20144;SDS011;10233;50.814;6.590;2023-01-08T04:55:33;0.27;;;0.27;;
20144;SDS011;10233;50.814;6.590;2023-01-08T04:56:33;1.00;;;0.40;;
20144;SDS011;10233;50.814;6.590;2023-01-08T04:57:34;0.50;;;0.30;;
20144;SDS011;10233;50.814;6.590;2023-01-08T04:58:34;1.35;;;0.40;;
20144;SDS011;10233;50.814;6.590;2023-01-08T04:59:36;1.13;;;0.35;;
20144;SDS011;10233;50.814;6.590;2023-01-08T05:00:37;0.32;;;0.32;;
20144;SDS011;10233;50.814;6.590;2023-01-08T05:01:41;1.60;;;0.52;;
20144;SDS011;10233;50.814;6.590;2023-01-08T05:02:42;0.85;;;0.47;;
20144;SDS011;10233;50.814;6.590;2023-01-08T05:03:42;1.38;;;0.30;;
20144;SDS011;10233;50.814;6.590;2023-01-08T05:04:43;0.30;;;0.30;;
20144;SDS011;10233;50.814;6.590;2023-01-08T05:05:43;0.60;;;0.30;;
20144;SDS011;10233;50.814;6.590;2023-01-08T05:06:44;0.53;;;0.30;;
20144;SDS011;10233;50.814;6.590;2023-01-08T05:07:44;0.10;;;0.10;;
20144;SDS011;10233;50.814;6.590;2023-01-08T05:08:45;0.40;;;0.20;;
20144;SDS011;10233;50.814;6.590;2023-01-08T05:09:45;0.70;;;0.30;;
20144;SDS011;10233;50.814;6.590;2023-01-08T05:10:46;0.35;;;0.25;;
20144;SDS011;10233;50.814;6.590;2023-01-08T05:11:47;1.67;;;0.23;;
20144;SDS011;10233;50.814;6.590;2023-01-08T05:12:47;0.80;;;0.30;;
20144;SDS011;10233;50.814;6.590;2023-01-08T05:13:48;0.45;;;0.40;;
20144;SDS011;10233;50.814;6.590;2023-01-08T05:14:49;0.60;;;0.20;;
20144;SDS011;10233;50.814;6.590;2023-01-08T05:15:50;0.35;;;0.28;;
20144;SDS011;10233;50.814;6.590;2023-01-08T05:16:50;0.87;;;0.30;;
20144;SDS011;10233;50.814;6.590;2023-01-08T05:18:00;1.40;;;0.30;;
20144;SDS011;10233;50.814;6.590;2023-01-08T05:19:02;0.52;;;0.28;;
20144;SDS011;10233;50.814;6.590;2023-01-08T05:20:03;0.20;;;0.20;;
20144;SDS011;10233;50.814;6.590;2023-01-08T05:21:04;0.45;;;0.30;;
20144;SDS011;10233;50.814;6.590;2023-01-08T05:22:05;0.83;;;0.30;;
20144;SDS011;10233;50.814;6.590;2023-01-08T05:23:08;1.10;;;0.37;;
20144;SDS011;10233;50.814;6.590;2023-01-08T05:24:08;0.28;;;0.28;;
20144;SDS011;10233;50.814;6.590;2023-01-08T05:25:09;1.02;;;0.30;;
20144;SDS011;10233;50.814;6.590;2023-01-08T05:26:09;1.33;;;0.40;;
20144;SDS011;10233;50.814;6.590;2023-01-08T05:27:09;0.40;;;0.30;;
20144;SDS011;10233;50.814;6.590;2023-01-08T05:28:10;0.68;;;0.40;;
20144;SDS011;10233;50.814;6.590;2023-01-08T05:29:10;1.20;;;0.40;;
20144;SDS011;10233;50.814;6.590;2023-01-08T05:30:11;0.50;;;0.30;;
20144;SDS011;10233;50.814;6.590;2023-01-08T05:31:12;1.88;;;0.38;;
20144;SDS011;10233;50.814;6.590;2023-01-08T05:32:13;0.20;;;0.20;;
20144;SDS011;10233;50.814;6.590;2023-01-08T05:33:15;1.00;;;0.30;;
20144;SDS011;10233;50.814;6.590;2023-01-08T05:34:15;0.47;;;0.40;;
20144;SDS011;10233;50.814;6.590;2023-01-08T05:35:16;1.17;;;0.30;;
20144;SDS011;10233;50.814;6.590;2023-01-08T05:36:16;1.70;;;0.40;;
20144;SDS011;10233;50.814;6.590;2023-01-08T05:37:17;1.15;;;0.20;;
20144;SDS011;10233;50.814;6.590;2023-01-08T05:38:18;1.40;;;0.40;;
20144;SDS011;10233;50.814;6.590;2023-01-08T05:39:18;1.10;;;0.80;;
20144;SDS011;10233;50.814;6.590;2023-01-08T05:40:19;0.70;;;0.30;;
20144;SDS011;10233;50.814;6.590;2023-01-08T05:41:19;1.57;;;0.47;;
20144;SDS011;10233;50.814;6.590;2023-01-08T05:42:19;1.20;;;0.30;;
20144;SDS011;10233;50.814;6.590;2023-01-08T05:43:20;0.57;;;0.40;;
20144;SDS011;10233;50.814;6.590;2023-01-08T05:44:21;0.63;;;0.25;;
20144;SDS011;10233;50.814;6.590;2023-01-08T05:45:21;0.40;;;0.30;;
20144;SDS011;10233;50.814;6.590;2023-01-08T05:46:22;2.20;;;0.50;;
20144;SDS011;10233;50.814;6.590;2023-01-08T05:47:22;1.10;;;0.35;;
20144;SDS011;10233;50.814;6.590;2023-01-08T05:48:23;1.17;;;0.40;;
20144;SDS011;10233;50.814;6.590;2023-01-08T05:49:23;0.43;;;0.30;;
20144;SDS011;10233;50.814;6.590;2023-01-08T05:50:24;0.32;;;0.22;;
20144;SDS011;10233;50.814;6.590;2023-01-08T05:51:25;1.95;;;0.32;;
20144;SDS011;10233;50.814;6.590;2023-01-08T05:52:26;1.27;;;0.30;;
20144;SDS011;10233;50.814;6.590;2023-01-08T05:53:28;1.27;;;0.40;;
20144;SDS011;10233;50.814;6.590;2023-01-08T05:54:31;0.70;;;0.30;;
20144;SDS011;10233;50.814;6.590;2023-01-08T05:55:31;1.03;;;0.20;;
20144;SDS011;10233;50.814;6.590;2023-01-08T05:56:32;1.50;;;0.30;;
20144;SDS011;10233;50.814;6.590;2023-01-08T05:57:32;0.43;;;0.30;;
20144;SDS011;10233;50.814;6.590;2023-01-08T05:58:33;0.77;;;0.30;;
20144;SDS011;10233;50.814;6.590;2023-01-08T05:59:33;0.40;;;0.30;;
20144;SDS011;10233;50.814;6.590;2023-01-08T06:00:34;1.00;;;0.35;;
20144;SDS011;10233;50.814;6.590;2023-01-08T06:01:34;0.30;;;0.20;;
20144;SDS011;10233;50.814;6.590;2023-01-08T06:02:34;1.23;;;0.30;;
20144;SDS011;10233;50.814;6.590;2023-01-08T06:03:35;0.45;;;0.30;;
20144;SDS011;10233;50.814;6.590;2023-01-08T06:04:36;2.00;;;0.57;;
20144;SDS011;10233;50.814;6.590;2023-01-08T06:05:37;0.70;;;0.30;;
20144;SDS011;10233;50.814;6.590;2023-01-08T06:06:37;1.27;;;0.40;;
20144;SDS011;10233;50.814;6.590;2023-01-08T06:07:37;0.70;;;0.33;;
20144;SDS011;10233;50.814;6.590;2023-01-08T06:08:38;1.00;;;0.35;;
20144;SDS011;10233;50.814;6.590;2023-01-08T06:09:38;0.90;;;0.40;;
20144;SDS011;10233;50.814;6.590;2023-01-08T06:10:39;0.70;;;0.50;;
20144;SDS011;10233;50.814;6.590;2023-01-08T06:11:39;1.23;;;0.43;;
20144;SDS011;10233;50.814;6.590;2023-01-08T06:12:40;0.40;;;0.35;;
20144;SDS011;10233;50.814;6.590;2023-01-08T06:13:42;1.03;;;0.50;;
20144;SDS011;10233;50.814;6.590;2023-01-08T06:14:43;1.40;;;0.40;;
20144;SDS011;10233;50.814;6.590;2023-01-08T06:15:43;0.30;;;0.30;;
20144;SDS011;10233;50.814;6.590;2023-01-08T06:16:44;0.40;;;0.40;;
20144;SDS011;10233;50.814;6.590;2023-01-08T06:17:44;1.60;;;0.40;;
20144;SDS011;10233;50.814;6.590;2023-01-08T06:18:45;1.00;;;0.40;;
20144;SDS011;10233;50.814;6.590;2023-01-08T06:19:46;0.70;;;0.38;;
20144;SDS011;10233;50.814;6.590;2023-01-08T06:20:47;1.30;;;0.45;;
20144;SDS011;10233;50.814;6.590;2023-01-08T06:21:47;1.73;;;0.50;;
20144;SDS011;10233;50.814;6.590;2023-01-08T06:22:48;0.90;;;0.30;;
20144;SDS011;10233;50.814;6.590;2023-01-08T06:23:48;0.68;;;0.40;;
20144;SDS011;10233;50.814;6.590;2023-01-08T06:24:49;1.17;;;0.57;;
20144;SDS011;10233;50.814;6.590;2023-01-08T06:25:55;1.47;;;0.57;;
20144;SDS011;10233;50.814;6.590;2023-01-08T06:26:57;1.85;;;0.50;;
20144;SDS011;10233;50.814;6.590;2023-01-08T06:27:57;0.73;;;0.43;;
20144;SDS011;10233;50.814;6.590;2023-01-08T06:28:58;0.57;;;0.30;;
20144;SDS011;10233;50.814;6.590;2023-01-08T06:29:58;1.60;;;0.67;;